createdAt,value
2022-09-04T00:01:30.873Z,12.58
2022-09-04T00:04:49.357Z,12.56
2022-09-04T00:08:15.990Z,12.52
2022-09-04T00:11:26.925Z,12.52
2022-09-04T00:14:43.814Z,12.49
2022-09-04T00:18:08.359Z,12.44
2022-09-04T00:21:37.068Z,12.40
2022-09-04T00:24:43.132Z,12.37
2022-09-04T00:27:50.315Z,12.34
2022-09-04T00:31:19.779Z,12.32
2022-09-04T00:34:46.479Z,12.27
2022-09-04T00:37:56.598Z,12.24
2022-09-04T00:41:20.503Z,12.21
2022-09-04T00:44:45.982Z,12.19
2022-09-04T00:48:05.836Z,12.14
2022-09-04T00:51:26.208Z,12.10
2022-09-04T00:55:20.430Z,12.08
2022-09-04T00:58:35.388Z,12.08
2022-09-04T01:01:38.933Z,12.03
2022-09-04T01:04:55.834Z,12.02
2022-09-04T01:08:23.604Z,11.99
2022-09-04T01:11:52.375Z,11.96
2022-09-04T01:15:03.862Z,11.93
2022-09-04T01:18:17.437Z,11.92
2022-09-04T01:21:34.215Z,11.90
2022-09-04T01:24:48.141Z,11.87
2022-09-04T01:28:13.601Z,11.84
2022-09-04T01:31:31.973Z,11.83
2022-09-04T01:35:01.754Z,11.83
2022-09-04T01:38:16.647Z,11.79
2022-09-04T01:41:40.953Z,11.75
2022-09-04T01:44:42.879Z,11.72
2022-09-04T01:47:58.157Z,11.70
2022-09-04T01:51:25.412Z,11.67
2022-09-04T01:55:11.361Z,11.67
2022-09-04T01:59:03.924Z,11.70
2022-09-04T02:02:38.890Z,11.71
2022-09-04T02:05:53.287Z,11.72
2022-09-04T02:09:35.085Z,11.75
2022-09-04T02:12:54.081Z,11.83
2022-09-04T05:28:20.357Z,11.15
2022-09-04T05:31:58.962Z,11.31
2022-09-04T05:35:22.114Z,11.50
2022-09-04T05:38:46.793Z,11.66
2022-09-04T05:41:54.913Z,11.82
2022-09-04T05:45:05.787Z,11.93
2022-09-04T05:48:19.616Z,12.04
2022-09-04T05:51:38.702Z,12.16
2022-09-04T05:55:13.315Z,12.29
2022-09-04T05:58:46.380Z,12.45
2022-09-04T06:02:56.818Z,12.60
2022-09-04T06:06:46.116Z,12.79
2022-09-04T06:10:33.928Z,12.97
2022-09-04T06:13:54.020Z,13.09
2022-09-04T06:17:15.310Z,13.25
2022-09-04T06:20:29.287Z,13.39
2022-09-04T06:23:34.170Z,13.61
2022-09-04T06:26:51.191Z,13.76
2022-09-04T06:29:58.968Z,14.07
2022-09-04T06:33:13.388Z,14.55
2022-09-04T06:36:49.159Z,14.66
2022-09-04T06:40:46.422Z,14.74
2022-09-04T06:44:06.409Z,14.87
2022-09-04T06:47:30.218Z,14.95
2022-09-04T06:50:32.136Z,14.87
2022-09-04T06:53:46.514Z,14.85
2022-09-04T06:57:06.408Z,14.87
2022-09-04T07:00:09.411Z,14.90
2022-09-04T07:03:28.739Z,15.01
2022-09-04T07:06:54.577Z,15.06
2022-09-04T07:14:25.116Z,15.29
2022-09-04T07:17:38.207Z,15.33
2022-09-04T07:20:58.739Z,15.39
2022-09-04T07:24:14.006Z,15.42
2022-09-04T07:37:04.708Z,15.97
2022-09-04T07:41:00.325Z,16.15
2022-09-04T07:44:29.317Z,16.35
2022-09-04T07:47:44.554Z,16.67
2022-09-04T07:51:04.975Z,16.72
2022-09-04T07:54:48.660Z,16.74
2022-09-04T07:58:07.949Z,16.81
2022-09-04T08:01:23.351Z,16.88
2022-09-04T08:05:00.234Z,16.93
2022-09-04T08:08:37.272Z,17.04
2022-09-04T08:11:45.562Z,17.11
2022-09-04T08:15:04.744Z,17.23
2022-09-04T08:18:27.677Z,17.27
2022-09-04T08:21:30.543Z,17.41
2022-09-04T08:25:02.739Z,17.54
2022-09-04T08:28:26.980Z,17.56
2022-09-04T08:31:47.330Z,17.68
2022-09-04T08:35:07.339Z,17.76
2022-09-04T08:38:26.877Z,17.92
2022-09-04T08:41:41.820Z,17.96
2022-09-04T08:45:20.292Z,18.09
2022-09-04T08:48:59.601Z,18.19
2022-09-04T08:52:35.185Z,18.32
2022-09-04T08:56:06.507Z,18.47
2022-09-04T08:59:36.894Z,18.63
2022-09-04T09:02:59.932Z,18.76
2022-09-04T09:06:27.758Z,18.84
2022-09-04T09:10:01.230Z,18.99
2022-09-04T09:13:28.597Z,19.12
2022-09-04T09:17:13.658Z,19.32
2022-09-04T09:20:19.379Z,19.47
2022-09-04T09:23:21.669Z,19.56
2022-09-04T09:26:27.690Z,19.76
2022-09-04T09:29:41.836Z,19.90
2022-09-04T09:32:46.514Z,20.10
2022-09-04T09:36:20.213Z,20.31
2022-09-04T09:40:00.804Z,20.53
2022-09-04T09:43:24.494Z,20.68
2022-09-04T09:47:08.443Z,20.85
2022-09-04T09:50:41.358Z,20.95
2022-09-04T09:53:58.238Z,21.08
2022-09-04T09:57:29.693Z,21.13
2022-09-04T10:01:09.479Z,21.32
2022-09-04T10:04:49.720Z,21.39
2022-09-04T10:07:54.339Z,21.53
2022-09-04T10:10:57.201Z,21.60
2022-09-04T10:14:09.431Z,21.67
2022-09-04T10:17:32.922Z,21.78
2022-09-04T10:21:10.550Z,21.80
2022-09-04T10:24:23.461Z,21.89
2022-09-04T10:27:48.605Z,22.06
2022-09-04T10:31:13.240Z,21.97
2022-09-04T10:34:37.001Z,21.97
2022-09-04T10:38:06.443Z,21.99
2022-09-04T10:41:26.757Z,22.12
2022-09-04T10:44:44.241Z,22.24
2022-09-04T10:48:12.594Z,22.36
2022-09-04T10:51:35.689Z,22.43
2022-09-04T10:54:56.264Z,22.62
2022-09-04T10:58:17.150Z,22.60
2022-09-04T11:01:31.262Z,22.64
2022-09-04T11:04:52.604Z,22.67
2022-09-04T11:08:25.205Z,22.69
2022-09-04T11:11:52.862Z,22.74
2022-09-04T11:15:13.494Z,22.85
2022-09-04T11:18:38.086Z,22.97
2022-09-04T11:21:51.905Z,22.99
2022-09-04T11:25:04.351Z,23.08
2022-09-04T11:28:40.222Z,23.08
2022-09-04T11:32:15.687Z,23.14
2022-09-04T11:35:34.006Z,23.18
2022-09-04T11:38:58.689Z,23.22
2022-09-04T11:42:28.310Z,23.31
2022-09-04T11:46:00.965Z,23.42
2022-09-04T11:49:13.404Z,23.42
2022-09-04T11:52:22.657Z,23.45
2022-09-04T11:55:36.508Z,23.53
2022-09-04T11:59:10.908Z,23.56
2022-09-04T12:02:29.577Z,23.61
2022-09-04T12:05:56.171Z,23.64
2022-09-04T12:09:05.036Z,23.71
2022-09-04T12:12:32.533Z,23.72
2022-09-04T12:16:19.309Z,23.84
2022-09-04T12:19:40.008Z,23.85
2022-09-04T12:23:06.463Z,23.80
2022-09-04T12:26:26.356Z,23.91
2022-09-04T12:29:50.472Z,23.93
2022-09-04T12:33:03.296Z,23.93
2022-09-04T12:36:34.725Z,23.93
2022-09-04T12:39:51.720Z,23.98
2022-09-04T12:43:20.497Z,24.10
2022-09-04T12:46:39.105Z,24.12
2022-09-04T12:50:11.402Z,24.15
2022-09-04T12:53:37.315Z,24.09
2022-09-04T12:56:49.334Z,24.11
2022-09-04T13:00:12.287Z,24.12
2022-09-04T13:03:23.411Z,24.11
2022-09-04T13:06:45.202Z,24.13
2022-09-04T13:10:23.106Z,24.17
2022-09-04T13:13:48.450Z,24.20
2022-09-04T13:16:57.637Z,24.10
2022-09-04T13:20:14.340Z,24.08
2022-09-04T13:23:37.988Z,24.15
2022-09-04T13:27:06.870Z,24.24
2022-09-04T13:30:10.031Z,24.41
2022-09-04T13:33:49.662Z,24.65
2022-09-04T13:37:10.955Z,24.69
2022-09-04T13:40:54.912Z,24.68
2022-09-04T13:44:17.816Z,24.62
2022-09-04T13:47:32.070Z,24.64
2022-09-04T13:50:42.520Z,24.63
2022-09-04T13:54:10.871Z,24.65
2022-09-04T13:57:18.128Z,24.66
2022-09-04T14:00:21.473Z,24.67
2022-09-04T14:03:33.686Z,24.73
2022-09-04T14:06:36.980Z,24.72
2022-09-04T14:09:45.006Z,24.72
2022-09-04T14:13:04.874Z,24.73
2022-09-04T14:16:10.900Z,24.65
2022-09-04T14:19:32.405Z,24.60
2022-09-04T14:22:46.295Z,24.58
2022-09-04T14:26:06.270Z,24.61
2022-09-04T14:29:10.828Z,24.65
2022-09-04T14:32:32.182Z,24.70
2022-09-04T14:36:14.973Z,24.82
2022-09-04T14:39:22.841Z,24.97
2022-09-04T14:42:58.353Z,25.10
2022-09-04T14:46:19.208Z,25.17
2022-09-04T14:49:31.990Z,25.15
2022-09-04T14:52:41.064Z,25.08
2022-09-04T14:56:04.808Z,25.05
2022-09-04T14:59:12.876Z,25.02
2022-09-04T15:02:28.254Z,24.90
2022-09-04T15:05:51.525Z,24.74
2022-09-04T15:08:54.154Z,24.70
2022-09-04T15:12:24.314Z,24.67
2022-09-04T15:15:35.027Z,24.69
2022-09-04T15:18:40.678Z,24.66
2022-09-04T15:21:55.136Z,24.63
2022-09-04T15:24:57.146Z,24.66
2022-09-04T15:28:10.695Z,24.73
2022-09-04T15:31:18.419Z,24.76
2022-09-04T15:34:25.838Z,24.77
2022-09-04T15:37:28.692Z,24.77
2022-09-04T15:40:35.128Z,24.81
2022-09-04T15:43:48.322Z,24.77
2022-09-04T15:47:15.980Z,24.73
2022-09-04T15:50:21.962Z,24.73
2022-09-04T15:53:27.555Z,24.69
2022-09-04T15:56:38.774Z,24.67
2022-09-04T15:59:46.439Z,24.65
2022-09-04T16:03:03.411Z,24.63
2022-09-04T16:06:19.323Z,24.57
2022-09-04T16:09:30.841Z,24.47
2022-09-04T16:12:38.795Z,24.47
2022-09-04T16:15:45.993Z,24.45
2022-09-04T16:19:14.298Z,24.37
2022-09-04T16:22:47.778Z,24.29
2022-09-04T16:25:50.854Z,24.18
2022-09-04T16:29:02.662Z,24.12
2022-09-04T16:32:12.251Z,24.11
2022-09-04T16:35:21.508Z,24.11
2022-09-04T16:38:47.446Z,24.13
2022-09-04T16:41:51.866Z,24.06
2022-09-04T16:45:03.177Z,24.07
2022-09-04T16:48:33.882Z,24.03
2022-09-04T16:51:48.565Z,23.98
2022-09-04T16:55:10.537Z,23.88
2022-09-04T16:58:12.094Z,23.75
2022-09-04T17:01:17.887Z,23.67
2022-09-04T17:04:39.745Z,23.58
2022-09-04T17:07:49.326Z,23.50
2022-09-04T17:11:14.742Z,23.46
2022-09-04T17:14:35.502Z,23.37
2022-09-04T17:17:41.567Z,23.30
2022-09-04T17:24:10.747Z,23.22
2022-09-04T17:28:57.996Z,23.13
2022-09-04T17:29:16.212Z,23.03
2022-09-04T17:31:45.526Z,22.91
2022-09-04T17:40:34.778Z,22.86
2022-09-04T17:40:37.325Z,22.85
2022-09-04T17:42:14.878Z,22.77
2022-09-04T17:45:33.868Z,22.64
2022-09-04T17:48:46.165Z,22.49
2022-09-04T17:51:57.466Z,22.32
2022-09-04T17:55:12.951Z,22.18
2022-09-04T17:58:26.886Z,22.04
2022-09-04T18:02:17.569Z,21.88
2022-09-04T18:05:28.319Z,21.71
2022-09-04T18:08:43.574Z,21.59
2022-09-04T18:12:00.916Z,21.45
2022-09-04T18:15:33.696Z,21.33
2022-09-04T18:19:09.648Z,21.20
2022-09-04T18:22:33.707Z,21.10
2022-09-04T18:25:54.141Z,21.01
2022-09-04T18:30:11.914Z,20.91
2022-09-04T18:37:16.530Z,20.73
2022-09-04T18:37:20.116Z,20.80
2022-09-04T18:40:06.897Z,20.63
2022-09-04T18:50:22.959Z,20.55
2022-09-04T18:50:37.752Z,20.45
2022-09-04T18:50:44.415Z,20.36
2022-09-04T18:53:33.028Z,20.25
2022-09-04T18:56:43.232Z,20.15
2022-09-04T18:59:46.624Z,20.05
2022-09-04T19:03:18.233Z,19.95
2022-09-04T19:07:06.750Z,19.87
2022-09-04T19:10:18.606Z,19.77
2022-09-04T19:13:28.748Z,19.71
2022-09-04T19:17:08.076Z,19.68
2022-09-04T19:20:15.705Z,19.66
2022-09-04T19:23:28.566Z,19.63
2022-09-04T19:26:43.413Z,19.54
2022-09-04T19:30:19.965Z,19.46
2022-09-04T19:33:39.413Z,19.40
2022-09-04T19:41:39.586Z,19.32
2022-09-04T19:45:58.926Z,19.23
2022-09-04T19:46:11.287Z,19.13
2022-09-04T19:50:44.148Z,18.99
2022-09-04T19:53:32.276Z,18.92
2022-09-04T19:57:14.768Z,18.82
2022-09-04T20:00:38.246Z,18.78
2022-09-04T20:03:48.584Z,18.74
2022-09-04T20:07:14.158Z,18.70
2022-09-04T20:11:07.026Z,18.66
2022-09-04T21:37:30.496Z,17.98
2022-09-04T21:41:04.460Z,17.95
